createdAt,value
2018-11-20T00:01:17.929Z,3.70
2018-11-20T00:04:04.955Z,3.73
2018-11-20T00:06:56.031Z,3.20
2018-11-20T00:09:37.225Z,3.67
2018-11-20T00:12:37.289Z,4.17
2018-11-20T00:15:25.584Z,4.17
2018-11-20T00:18:31.881Z,3.70
2018-11-20T00:21:26.810Z,3.47
2018-11-20T00:24:07.825Z,3.30
2018-11-20T00:26:47.907Z,4.03
2018-11-20T00:29:34.982Z,3.47
2018-11-20T00:32:13.578Z,3.87
2018-11-20T00:35:04.713Z,4.67
2018-11-20T00:37:44.851Z,2.67
2018-11-20T00:40:35.703Z,3.67
2018-11-20T00:43:15.394Z,4.43
2018-11-20T00:46:02.293Z,3.23
2018-11-20T00:48:45.611Z,2.73
2018-11-20T00:51:35.090Z,3.27
2018-11-20T00:54:28.512Z,3.90
2018-11-20T00:57:19.778Z,4.00
2018-11-20T01:00:03.866Z,3.67
2018-11-20T01:02:44.276Z,2.87
2018-11-20T01:05:31.050Z,4.23
2018-11-20T01:08:17.856Z,3.43
2018-11-20T01:11:14.440Z,4.07
2018-11-20T01:14:05.877Z,3.27
2018-11-20T01:16:57.200Z,3.80
2018-11-20T01:19:44.052Z,3.47
2018-11-20T01:22:31.972Z,4.27
2018-11-20T01:25:11.714Z,3.47
2018-11-20T01:28:05.870Z,2.90
2018-11-20T01:31:03.133Z,3.40
2018-11-20T01:34:00.241Z,2.70
2018-11-20T01:36:49.767Z,3.30
2018-11-20T01:39:43.407Z,2.80
2018-11-20T01:42:46.757Z,3.63
2018-11-20T01:45:27.607Z,2.73
2018-11-20T01:48:15.960Z,3.17
2018-11-20T01:51:02.632Z,2.13
2018-11-20T01:53:49.271Z,3.47
2018-11-20T01:56:27.781Z,3.10
2018-11-20T01:59:15.901Z,3.83
2018-11-20T02:02:13.993Z,3.47
2018-11-20T02:05:05.381Z,3.13
2018-11-20T02:07:52.568Z,2.83
2018-11-20T02:10:36.672Z,2.87
2018-11-20T02:14:04.014Z,3.07
2018-11-20T02:16:54.627Z,3.20
2018-11-20T02:19:38.880Z,2.90
2018-11-20T02:22:22.032Z,3.30
2018-11-20T02:25:22.414Z,3.50
2018-11-20T02:28:09.149Z,4.03
2018-11-20T02:30:58.908Z,4.37
2018-11-20T02:33:40.016Z,3.80
2018-11-20T02:36:28.406Z,3.60
2018-11-20T02:39:15.298Z,3.70
2018-11-20T02:42:02.829Z,2.87
2018-11-20T02:44:50.017Z,3.87
2018-11-20T02:47:37.824Z,3.77
2018-11-20T02:50:28.832Z,4.33
2018-11-20T02:53:15.567Z,4.27
2018-11-20T02:55:57.068Z,4.73
2018-11-20T02:58:38.184Z,3.77
2018-11-20T03:01:26.300Z,4.43
2018-11-20T03:04:20.057Z,4.87
2018-11-20T03:07:06.978Z,4.47
2018-11-20T03:09:55.094Z,3.30
2018-11-20T03:12:34.660Z,4.07
2018-11-20T03:15:21.473Z,4.00
2018-11-20T03:18:08.762Z,4.13
2018-11-20T03:20:48.198Z,4.57
2018-11-20T03:23:32.693Z,4.27
2018-11-20T03:26:15.552Z,3.97
2018-11-20T03:29:45.472Z,5.10
2018-11-20T03:32:45.584Z,4.47
2018-11-20T03:35:33.686Z,4.37
2018-11-20T03:38:40.079Z,4.63
2018-11-20T03:41:21.956Z,4.80
2018-11-20T03:44:08.940Z,4.33
2018-11-20T03:47:03.787Z,4.97
2018-11-20T03:49:55.941Z,5.60
2018-11-20T03:52:53.079Z,4.53
2018-11-20T03:55:38.025Z,3.43
2018-11-20T03:58:34.478Z,5.23
2018-11-20T04:01:37.939Z,3.57
2018-11-20T04:04:23.271Z,3.10
2018-11-20T04:07:07.610Z,3.30
2018-11-20T04:09:56.749Z,4.27
2018-11-20T04:12:39.175Z,3.20
2018-11-20T04:15:39.283Z,4.70
2018-11-20T04:18:33.325Z,3.73
2018-11-20T04:21:20.430Z,3.60
2018-11-20T04:24:02.308Z,4.33
2018-11-20T04:26:49.359Z,3.43
2018-11-20T04:29:52.565Z,3.93
2018-11-20T04:32:27.559Z,3.97
2018-11-20T04:35:21.368Z,4.47
2018-11-20T04:37:57.885Z,4.03
2018-11-20T04:40:37.835Z,3.27
2018-11-20T04:43:34.031Z,3.83
2018-11-20T04:46:22.209Z,3.63
2018-11-20T04:49:10.335Z,3.97
2018-11-20T04:51:50.055Z,4.27
2018-11-20T04:54:36.831Z,4.20
2018-11-20T04:57:16.170Z,3.93
2018-11-20T04:59:59.187Z,3.33
2018-11-20T05:02:39.851Z,4.03
2018-11-20T05:05:26.516Z,4.10
2018-11-20T05:08:13.488Z,4.77
2018-11-20T05:10:54.946Z,4.13
2018-11-20T05:13:41.728Z,3.37
2018-11-20T05:16:36.015Z,4.67
2018-11-20T05:19:23.536Z,3.53
2018-11-20T05:22:11.870Z,4.13
2018-11-20T05:24:58.830Z,3.27
2018-11-20T05:27:41.774Z,3.77
2018-11-20T05:30:36.195Z,4.37
2018-11-20T05:33:23.198Z,4.00
2018-11-20T05:36:05.340Z,4.30
2018-11-20T05:38:51.485Z,4.37
2018-11-20T05:41:32.887Z,3.57
2018-11-20T05:44:18.779Z,3.20
2018-11-20T05:47:05.361Z,4.00
2018-11-20T05:50:02.688Z,3.10
2018-11-20T05:53:06.951Z,4.30
2018-11-20T05:56:06.306Z,3.27
2018-11-20T05:58:53.315Z,4.73
2018-11-20T06:01:49.659Z,4.23
2018-11-20T06:04:37.442Z,4.30
2018-11-20T06:07:17.711Z,3.93
2018-11-20T06:10:04.508Z,3.63
2018-11-20T06:12:49.230Z,3.47
2018-11-20T06:15:46.394Z,4.50
2018-11-20T06:18:37.162Z,4.73
2018-11-20T06:21:34.218Z,4.13
2018-11-20T06:24:19.539Z,4.23
2018-11-20T06:27:06.226Z,3.83
2018-11-20T06:30:04.841Z,4.23
2018-11-20T06:32:55.278Z,4.63
2018-11-20T06:35:42.107Z,4.40
2018-11-20T06:38:39.346Z,5.17
2018-11-20T06:41:42.712Z,4.17
2018-11-20T06:44:29.374Z,4.07
2018-11-20T06:47:18.228Z,3.10
2018-11-20T06:50:04.837Z,4.47
2018-11-20T06:52:53.084Z,5.00
2018-11-20T06:55:56.270Z,3.67
2018-11-20T06:58:43.155Z,4.10
2018-11-20T07:01:29.831Z,3.97
2018-11-20T07:04:14.407Z,4.97
2018-11-20T07:07:08.784Z,4.77
2018-11-20T07:10:01.445Z,4.20
2018-11-20T07:12:48.470Z,3.83
2018-11-20T07:15:30.423Z,3.03
2018-11-20T07:18:11.426Z,4.70
2018-11-20T07:21:09.715Z,4.43
2018-11-20T07:24:08.089Z,5.03
2018-11-20T07:26:52.390Z,5.10
2018-11-20T07:29:40.137Z,5.00
2018-11-20T07:32:37.228Z,4.87
2018-11-20T07:35:25.481Z,5.07
2018-11-20T07:38:22.951Z,4.43
2018-11-20T07:41:04.041Z,3.40
2018-11-20T07:43:51.212Z,3.80
2018-11-20T07:46:42.070Z,5.20
2018-11-20T07:49:48.114Z,4.73
2018-11-20T07:52:45.687Z,3.37
2018-11-20T07:55:32.822Z,4.10
2018-11-20T07:58:25.951Z,5.00
2018-11-20T08:01:09.849Z,4.67
2018-11-20T08:03:47.531Z,4.20
2018-11-20T08:06:44.513Z,5.03
2018-11-20T08:09:31.358Z,4.23
2018-11-20T08:12:34.716Z,5.07
2018-11-20T08:15:22.214Z,5.53
2018-11-20T08:18:07.153Z,5.33
2018-11-20T08:20:42.590Z,4.77
2018-11-20T08:23:42.856Z,4.13
2018-11-20T08:26:29.022Z,3.93
2018-11-20T08:29:11.316Z,4.27
2018-11-20T08:32:02.011Z,4.87
2018-11-20T08:34:49.012Z,4.40
2018-11-20T08:37:46.701Z,4.67
2018-11-20T08:40:38.627Z,4.83
2018-11-20T08:43:25.375Z,4.53
2018-11-20T08:46:19.148Z,5.43
2018-11-20T08:49:14.845Z,5.13
2018-11-20T08:52:07.538Z,4.03
2018-11-20T08:54:54.332Z,6.07
2018-11-20T08:57:57.822Z,5.23
2018-11-20T09:00:37.460Z,4.47
2018-11-20T09:03:25.648Z,5.20
2018-11-20T09:06:11.290Z,4.73
2018-11-20T09:08:51.337Z,5.17
2018-11-20T09:11:38.075Z,4.70
2018-11-20T09:14:25.072Z,4.70
2018-11-20T09:17:16.096Z,4.47
2018-11-20T09:20:13.115Z,5.43
2018-11-20T09:23:10.264Z,5.27
2018-11-20T09:25:57.319Z,5.97
2018-11-20T09:28:44.361Z,6.20
2018-11-20T09:31:31.290Z,6.17
2018-11-20T09:34:19.427Z,3.53
2018-11-20T09:37:12.265Z,6.00
2018-11-20T09:40:01.800Z,5.70
2018-11-20T09:42:50.838Z,6.00
2018-11-20T09:46:16.908Z,5.23
2018-11-20T09:49:08.610Z,4.40
2018-11-20T09:52:11.782Z,5.23
2018-11-20T09:55:12.209Z,5.20
2018-11-20T09:57:55.184Z,6.20
2018-11-20T10:00:41.799Z,5.50
2018-11-20T10:03:29.243Z,4.80
2018-11-20T10:06:27.686Z,5.50
2018-11-20T10:09:15.215Z,5.63
2018-11-20T10:12:13.569Z,3.60
2018-11-20T10:15:01.848Z,6.07
2018-11-20T10:17:49.903Z,5.50
2018-11-20T10:20:32.678Z,6.20
2018-11-20T10:23:17.056Z,5.80
2018-11-20T10:26:23.691Z,5.37
2018-11-20T10:29:13.524Z,6.77
2018-11-20T10:32:03.938Z,6.13
2018-11-20T10:34:50.650Z,6.63
2018-11-20T10:37:31.211Z,5.47
2018-11-20T10:40:15.495Z,6.40
2018-11-20T10:43:02.079Z,6.43
2018-11-20T10:45:49.034Z,6.20
2018-11-20T10:48:49.474Z,7.77
2018-11-20T10:51:29.563Z,6.17
2018-11-20T10:54:26.092Z,6.27
2018-11-20T10:57:14.405Z,7.23
2018-11-20T11:00:02.552Z,6.47
2018-11-20T11:02:49.339Z,6.13
2018-11-20T11:05:52.156Z,7.10
2018-11-20T11:08:40.087Z,5.93
2018-11-20T11:11:40.441Z,4.87
2018-11-20T11:14:28.096Z,5.13
2018-11-20T11:17:15.102Z,7.00
2018-11-20T11:19:59.277Z,5.87
2018-11-20T11:22:53.011Z,6.67
2018-11-20T11:25:41.530Z,5.43
2018-11-20T11:28:28.812Z,6.87
2018-11-20T11:31:23.211Z,6.10
2018-11-20T11:34:09.826Z,7.13
2018-11-20T11:36:49.846Z,7.40
2018-11-20T11:39:40.661Z,6.67
2018-11-20T11:42:33.010Z,5.60
2018-11-20T11:45:12.547Z,6.37
2018-11-20T11:48:06.491Z,6.40
2018-11-20T11:51:06.555Z,8.17
2018-11-20T11:53:52.828Z,5.47
2018-11-20T11:56:41.282Z,7.13
2018-11-20T11:59:25.191Z,7.57
2018-11-20T12:04:55.939Z,5.83
2018-11-20T12:07:39.011Z,8.03
2018-11-20T12:10:29.773Z,7.67
2018-11-20T12:16:09.714Z,6.70
2018-11-20T12:19:00.180Z,7.07
2018-11-20T12:21:52.686Z,6.67
2018-11-20T12:24:39.899Z,7.20
2018-11-20T12:27:26.693Z,7.10
2018-11-20T12:30:15.622Z,6.60
2018-11-20T12:33:01.441Z,7.53
2018-11-20T12:35:48.395Z,7.60
2018-11-20T12:38:24.963Z,7.33
2018-11-20T12:41:21.260Z,8.17
2018-11-20T12:44:15.327Z,4.90
2018-11-20T12:46:59.680Z,5.47
2018-11-20T12:49:46.362Z,8.80
2018-11-20T12:52:41.293Z,7.63
2018-11-20T12:55:46.915Z,5.10
2018-11-20T12:58:26.968Z,7.40
2018-11-20T13:01:10.978Z,6.73
2018-11-20T13:04:02.475Z,6.43
2018-11-20T13:06:48.615Z,7.57
2018-11-20T13:09:33.863Z,6.77
2018-11-20T13:12:20.461Z,7.57
2018-11-20T13:15:07.368Z,6.17
2018-11-20T13:17:58.744Z,5.73
2018-11-20T13:20:50.598Z,6.67
2018-11-20T13:23:56.500Z,4.53
2018-11-20T13:26:52.069Z,7.37
2018-11-20T13:29:39.416Z,7.33
2018-11-20T13:32:26.173Z,6.73
2018-11-20T13:35:13.277Z,6.40
2018-11-20T13:38:04.886Z,6.63
2018-11-20T13:41:34.152Z,6.67
2018-11-20T13:44:14.339Z,7.13
2018-11-20T13:47:01.666Z,5.87
2018-11-20T13:49:51.932Z,6.10
2018-11-20T13:52:31.783Z,6.10
2018-11-20T13:55:31.906Z,6.73
2018-11-20T13:58:18.443Z,8.90
2018-11-20T14:01:09.088Z,7.07
2018-11-20T14:03:56.220Z,7.67
2018-11-20T14:06:43.121Z,8.47
2018-11-20T14:09:39.758Z,7.70
2018-11-20T14:12:26.952Z,6.07
2018-11-20T14:15:27.362Z,7.87
2018-11-20T14:18:13.495Z,5.23
2018-11-20T14:21:04.289Z,7.17
2018-11-20T14:23:51.027Z,8.00
2018-11-20T14:26:38.004Z,7.53
2018-11-20T14:29:20.165Z,8.53
2018-11-20T14:32:20.200Z,8.10
2018-11-20T14:34:58.531Z,7.13
2018-11-20T14:38:01.773Z,6.70
2018-11-20T14:40:48.068Z,6.40
2018-11-20T14:43:35.129Z,6.27
2018-11-20T14:46:14.316Z,5.17
2018-11-20T14:49:10.664Z,5.57
2018-11-20T14:52:02.246Z,7.07
2018-11-20T14:54:40.491Z,6.27
2018-11-20T14:57:19.007Z,5.87
2018-11-20T15:00:22.423Z,5.63
2018-11-20T15:03:09.163Z,6.03
2018-11-20T15:05:55.917Z,6.50
2018-11-20T15:08:44.731Z,5.57
2018-11-20T15:11:32.981Z,6.00
2018-11-20T15:14:19.873Z,5.07
2018-11-20T15:17:06.608Z,5.50
2018-11-20T15:20:09.751Z,3.13
2018-11-20T15:22:55.945Z,5.03
2018-11-20T15:25:50.958Z,4.13
2018-11-20T15:28:36.346Z,4.63
2018-11-20T15:31:28.436Z,6.27
2018-11-20T15:34:07.592Z,5.43
2018-11-20T15:36:46.111Z,4.17
2018-11-20T15:39:31.514Z,3.40
2018-11-20T15:42:15.020Z,6.10
2018-11-20T15:44:58.096Z,4.83
2018-11-20T15:47:58.673Z,5.43
2018-11-20T15:50:41.877Z,5.13
2018-11-20T15:53:25.770Z,5.40
2018-11-20T15:56:16.784Z,4.83
2018-11-20T15:59:08.511Z,5.23
2018-11-20T16:02:03.078Z,4.47
2018-11-20T16:04:49.953Z,4.03
2018-11-20T16:07:50.482Z,3.87
2018-11-20T16:10:47.327Z,4.50
2018-11-20T16:13:27.356Z,4.17
2018-11-20T16:16:33.744Z,2.87
2018-11-20T16:19:20.564Z,3.90
2018-11-20T16:22:07.242Z,5.63
2018-11-20T16:25:01.274Z,5.00
2018-11-20T16:27:48.263Z,4.83
2018-11-20T16:30:36.992Z,4.47
2018-11-20T16:33:28.022Z,5.63
2018-11-20T16:36:08.545Z,4.20
2018-11-20T16:39:05.776Z,4.30
2018-11-20T16:41:52.547Z,5.17
2018-11-20T16:44:39.150Z,4.20
2018-11-20T16:47:31.042Z,3.03
2018-11-20T16:50:17.990Z,4.50
2018-11-20T16:53:06.939Z,4.90
2018-11-20T16:56:03.992Z,5.23
2018-11-20T16:59:00.725Z,3.33
2018-11-20T17:01:40.459Z,4.53
2018-11-20T17:04:47.467Z,4.30
2018-11-20T17:07:34.079Z,4.57
2018-11-20T17:10:24.738Z,4.63
2018-11-20T17:13:11.485Z,5.10
2018-11-20T17:15:58.466Z,4.53
2018-11-20T17:18:55.338Z,4.93
2018-11-20T17:21:41.524Z,3.60
2018-11-20T17:24:30.060Z,4.87
2018-11-20T17:27:16.941Z,4.97
2018-11-20T17:29:54.430Z,4.13
2018-11-20T17:32:42.575Z,4.13
2018-11-20T17:35:39.158Z,5.00
2018-11-20T17:38:25.848Z,3.90
2018-11-20T17:41:12.700Z,4.60
2018-11-20T17:43:59.650Z,4.53
2018-11-20T17:46:40.815Z,4.57
2018-11-20T17:49:27.646Z,4.13
2018-11-20T17:52:14.898Z,4.63
2018-11-20T17:55:01.588Z,5.73
2018-11-20T17:57:45.817Z,5.07
2018-11-20T18:00:52.063Z,4.37
2018-11-20T18:03:41.232Z,4.70
2018-11-20T18:06:26.215Z,6.10
2018-11-20T18:09:19.244Z,4.27
2018-11-20T18:12:06.262Z,6.00
2018-11-20T18:14:45.831Z,5.17
2018-11-20T18:17:36.905Z,4.90
2018-11-20T18:20:25.043Z,4.47
2018-11-20T18:23:11.301Z,3.97
2018-11-20T18:25:52.132Z,5.27
2018-11-20T18:28:38.671Z,5.33
2018-11-20T18:31:25.399Z,5.03
2018-11-20T18:34:12.251Z,5.70
2018-11-20T18:37:00.483Z,5.43
2018-11-20T18:39:57.881Z,5.37
2018-11-20T18:42:58.020Z,4.13
2018-11-20T18:45:46.772Z,5.80
2018-11-20T18:48:34.710Z,4.73
2018-11-20T18:51:27.444Z,4.70
2018-11-20T18:54:15.607Z,5.23
2018-11-20T18:57:02.415Z,4.80
2018-11-20T19:00:09.571Z,5.57
2018-11-20T19:02:51.367Z,4.13
2018-11-20T19:05:38.134Z,4.97
2018-11-20T19:08:26.199Z,5.97
2018-11-20T19:11:13.243Z,4.47
2018-11-20T19:14:06.496Z,6.33
2018-11-20T19:16:57.365Z,5.73
2018-11-20T19:19:44.372Z,6.47
2018-11-20T19:22:31.396Z,3.70
2018-11-20T19:25:16.217Z,5.27
2018-11-20T19:28:04.168Z,4.37
2018-11-20T19:30:50.876Z,6.43
2018-11-20T19:33:37.510Z,5.57
2018-11-20T19:36:36.058Z,4.23
2018-11-20T19:39:17.217Z,4.73
2018-11-20T19:42:02.364Z,5.03
2018-11-20T19:44:54.223Z,5.37
2018-11-20T19:47:55.993Z,5.93
2018-11-20T19:50:47.322Z,7.13
2018-11-20T19:53:34.277Z,5.97
2018-11-20T19:56:37.953Z,5.90
2018-11-20T19:59:41.077Z,5.40
2018-11-20T20:02:27.928Z,5.77
2018-11-20T20:05:19.669Z,5.87
2018-11-20T20:08:06.741Z,6.10
2018-11-20T20:11:03.974Z,5.57
2018-11-20T20:13:52.281Z,5.53
2018-11-20T20:16:44.008Z,5.93
2018-11-20T20:19:31.010Z,5.63
2018-11-20T20:22:16.269Z,6.17
2018-11-20T20:25:13.664Z,5.70
2018-11-20T20:28:00.582Z,6.03
2018-11-20T20:30:51.486Z,7.23
2018-11-20T20:33:38.080Z,5.43
2018-11-20T20:36:26.232Z,6.40
2018-11-20T20:39:05.111Z,6.40
2018-11-20T20:41:51.836Z,7.40
2018-11-20T20:44:38.926Z,7.20
2018-11-20T20:47:27.006Z,6.47
2018-11-20T20:50:07.907Z,7.43
2018-11-20T20:52:59.275Z,7.90
2018-11-20T20:55:50.426Z,6.33
2018-11-20T20:58:56.811Z,6.93
2018-11-20T21:01:47.116Z,6.50
2018-11-20T21:04:41.683Z,6.27
2018-11-20T21:07:28.455Z,7.23
2018-11-20T21:10:19.588Z,6.53
2018-11-20T21:13:13.802Z,6.53
2018-11-20T21:16:03.790Z,7.00
2018-11-20T21:18:56.537Z,7.87
2018-11-20T21:21:43.863Z,7.90
2018-11-20T21:24:22.491Z,6.73
2018-11-20T21:27:04.414Z,7.17
2018-11-20T21:30:07.901Z,7.10
2018-11-20T21:32:49.871Z,7.80
2018-11-20T21:35:47.013Z,6.83
2018-11-20T21:38:33.409Z,7.40
2018-11-20T21:41:26.502Z,8.70
2018-11-20T21:44:29.839Z,8.27
2018-11-20T21:47:18.008Z,8.53
2018-11-20T21:50:08.049Z,6.80
2018-11-20T21:52:54.686Z,8.37
2018-11-20T21:58:42.496Z,8.37
2018-11-20T22:01:28.765Z,9.27
2018-11-20T22:04:24.531Z,8.30
2018-11-20T22:07:21.973Z,7.43
2018-11-20T22:10:08.044Z,7.63
2018-11-20T22:12:53.518Z,8.30
2018-11-20T22:15:55.985Z,6.87
2018-11-20T22:18:45.706Z,7.77
2018-11-20T22:21:31.527Z,7.67
2018-11-20T22:24:26.189Z,7.00
2018-11-20T22:27:11.875Z,7.10
2018-11-20T22:30:05.119Z,7.60
2018-11-20T22:32:51.305Z,8.00
2018-11-20T22:35:38.539Z,6.33
2018-11-20T22:38:23.940Z,7.67
2018-11-20T22:41:16.290Z,7.23
2018-11-20T22:44:04.094Z,7.23
2018-11-20T22:46:46.499Z,8.73
2018-11-20T22:49:33.714Z,8.30
2018-11-20T22:52:09.444Z,8.00
2018-11-20T22:55:15.327Z,8.63
2018-11-20T22:57:56.732Z,8.30
2018-11-20T23:00:42.847Z,9.10
2018-11-20T23:03:29.446Z,7.10
2018-11-20T23:06:05.402Z,8.30
2018-11-20T23:08:33.736Z,8.67
2018-11-20T23:11:01.845Z,6.87
2018-11-20T23:13:29.899Z,7.80
2018-11-20T23:15:58.273Z,7.57
2018-11-20T23:18:26.398Z,7.37
2018-11-20T23:20:54.767Z,8.53
2018-11-20T23:23:22.780Z,9.10
2018-11-20T23:25:51.200Z,7.90
2018-11-20T23:28:19.255Z,7.97
2018-11-20T23:30:47.611Z,7.03
2018-11-20T23:33:15.719Z,8.70
2018-11-20T23:35:44.158Z,6.93
2018-11-20T23:38:12.176Z,6.70
2018-11-20T23:40:40.221Z,6.10
2018-11-20T23:43:08.609Z,7.87
2018-11-20T23:45:36.646Z,9.40
2018-11-20T23:48:04.853Z,7.07
2018-11-20T23:50:33.275Z,7.67
2018-11-20T23:53:01.311Z,7.00
2018-11-20T23:55:29.578Z,6.77
2018-11-20T23:57:57.978Z,8.77
